Time;durP1;ratioP1;P1;durP2;ratioP2;P2;SDS_P1;SDS_P2;PMS_P1;PMS_P2;Temp;Humidity;BMP_temperature;BMP_pressure;BME280_temperature;BME280_humidity;BME280_pressure;Samples;Min_cycle;Max_cycle;Signal;HPM_P1;HPM_P2
2023/02/16 00:00:06;;;;;;;;;;;-0.80;99.90;;;;;;5080229;28;19912;-75
2023/02/16 00:02:33;;;;;;;;;;;-0.80;99.90;;;;;;5081452;28;20257;-76
2023/02/16 00:04:59;;;;;;;;;;;-0.80;99.90;;;;;;5084240;28;19916;-75
2023/02/16 00:07:25;;;;;;;;;;;-0.80;99.90;;;;;;5086023;28;19912;-74
2023/02/16 00:09:51;;;;;;;;;;;-0.80;99.90;;;;;;5082791;28;19999;-75
2023/02/16 00:15:18;;;;;;;;;;;-0.70;99.90;;;;;;5081752;28;19909;-75
2023/02/16 00:17:44;;;;;;;;;;;-0.80;99.90;;;;;;5086276;28;20321;-74
2023/02/16 00:20:14;;;;;;;;;;;-0.80;99.90;;;;;;5080657;28;20443;-74
2023/02/16 00:22:40;;;;;;;;;;;-0.80;99.90;;;;;;5080563;28;20245;-75
2023/02/16 00:25:07;;;;;;;;;;;-0.80;99.90;;;;;;5078314;28;19958;-75
2023/02/16 00:27:33;;;;;;;;;;;-0.80;99.90;;;;;;5085089;28;20372;-76
2023/02/16 00:29:59;;;;;;;;;;;-0.80;99.90;;;;;;5086734;28;19990;-75
2023/02/16 00:32:25;;;;;;;;;;;-0.70;99.90;;;;;;5082674;28;20254;-75
2023/02/16 00:34:51;;;;;;;;;;;-0.70;99.90;;;;;;5083767;28;19920;-75
2023/02/16 00:37:17;;;;;;;;;;;-0.70;99.90;;;;;;5083182;28;19983;-75
2023/02/16 00:39:44;;;;;;;;;;;-0.70;99.90;;;;;;5092951;28;19915;-75
2023/02/16 00:42:17;;;;;;;;;;;-0.80;99.90;;;;;;5089827;28;20345;-75
2023/02/16 00:44:51;;;;;;;;;;;-0.70;99.90;;;;;;5083087;28;19908;-75
2023/02/16 00:47:22;;;;;;;;;;;-0.70;99.90;;;;;;5101677;27;19908;-74
2023/02/16 00:49:49;;;;;;;;;;;-0.80;99.90;;;;;;5086031;28;19916;-74
2023/02/16 00:52:28;;;;;;;;;;;-0.70;99.90;;;;;;5085728;28;19920;-74
2023/02/16 00:54:54;;;;;;;;;;;-0.70;99.90;;;;;;5088594;28;20269;-74
2023/02/16 00:57:21;;;;;;;;;;;-0.60;99.90;;;;;;5086374;28;19911;-74
2023/02/16 00:59:47;;;;;;;;;;;-0.70;99.90;;;;;;5083836;28;20337;-75
2023/02/16 01:02:13;;;;;;;;;;;-0.70;99.90;;;;;;5079218;28;19998;-74
2023/02/16 01:04:39;;;;;;;;;;;-0.60;99.90;;;;;;5098364;28;20260;-75
2023/02/16 01:12:38;;;;;;;;;;;-0.70;99.90;;;;;;5081404;28;19916;-75
2023/02/16 01:15:08;;;;;;;;;;;-0.70;99.90;;;;;;5092013;28;19943;-74
2023/02/16 01:17:35;;;;;;;;;;;-0.60;99.90;;;;;;5093747;28;19931;-75
2023/02/16 01:20:01;;;;;;;;;;;-0.70;99.90;;;;;;5091215;28;19908;-74
2023/02/16 01:22:32;;;;;;;;;;;-0.70;99.90;;;;;;5074676;28;19904;-75
2023/02/16 01:24:58;;;;;;;;;;;-0.70;99.90;;;;;;5085721;28;19909;-75
2023/02/16 01:27:25;;;;;;;;;;;-0.70;99.90;;;;;;5082398;28;19916;-75
2023/02/16 01:29:51;;;;;;;;;;;-0.70;99.90;;;;;;5084947;28;19944;-75
2023/02/16 01:32:17;;;;;;;;;;;-0.70;99.90;;;;;;5121940;27;19948;-75
2023/02/16 01:34:43;;;;;;;;;;;-0.70;99.90;;;;;;5084480;28;20011;-75
2023/02/16 01:37:13;;;;;;;;;;;-0.70;99.90;;;;;;5082428;28;20402;-75
2023/02/16 01:39:42;;;;;;;;;;;-0.70;99.90;;;;;;5082629;28;19908;-75
2023/02/16 01:42:08;;;;;;;;;;;-0.70;99.90;;;;;;5084206;28;19908;-75
2023/02/16 01:44:40;;;;;;;;;;;-0.70;99.90;;;;;;5080516;28;19954;-74
2023/02/16 01:47:06;;;;;;;;;;;-0.60;99.90;;;;;;5086523;28;19912;-74
2023/02/16 01:49:32;;;;;;;;;;;-0.60;99.90;;;;;;5082868;28;20264;-74
2023/02/16 01:51:58;;;;;;;;;;;-0.70;99.90;;;;;;5076404;28;19927;-74
2023/02/16 01:54:37;;;;;;;;;;;-0.70;99.90;;;;;;5080994;28;19912;-75
2023/02/16 01:57:07;;;;;;;;;;;-0.70;99.90;;;;;;5080399;28;19915;-73
2023/02/16 01:59:42;;;;;;;;;;;-0.70;99.90;;;;;;5082979;28;19916;-74
2023/02/16 02:02:18;;;;;;;;;;;-0.70;99.90;;;;;;5084694;28;19931;-73
2023/02/16 02:07:40;;;;;;;;;;;-0.80;99.90;;;;;;5097689;28;19914;-74
2023/02/16 02:10:07;;;;;;;;;;;-0.80;99.90;;;;;;5082340;28;19915;-73
2023/02/16 02:12:39;;;;;;;;;;;-0.80;99.90;;;;;;5098547;27;19919;-74
2023/02/16 02:15:08;;;;;;;;;;;-0.90;99.90;;;;;;5083635;28;19923;-73
2023/02/16 02:17:34;;;;;;;;;;;-0.90;99.90;;;;;;5083266;28;19908;-73
2023/02/16 02:20:05;;;;;;;;;;;-0.90;99.90;;;;;;5073305;28;20353;-74
2023/02/16 02:25:35;;;;;;;;;;;-0.90;99.90;;;;;;5078447;28;19912;-73
2023/02/16 02:28:01;;;;;;;;;;;-0.80;99.90;;;;;;5096305;27;19909;-73
2023/02/16 02:30:50;;;;;;;;;;;-0.90;99.90;;;;;;5078754;28;20246;-73
2023/02/16 02:33:22;;;;;;;;;;;-0.90;99.90;;;;;;5092362;27;20357;-73
2023/02/16 02:36:01;;;;;;;;;;;-0.80;99.90;;;;;;5081620;28;19908;-73
2023/02/16 02:38:48;;;;;;;;;;;-0.80;99.90;;;;;;5092621;27;20306;-73
2023/02/16 02:41:19;;;;;;;;;;;-0.70;99.90;;;;;;5085628;28;20352;-74
2023/02/16 02:43:55;;;;;;;;;;;-0.80;99.90;;;;;;5096326;28;19920;-74
2023/02/16 02:46:26;;;;;;;;;;;-0.80;99.90;;;;;;5091500;28;19913;-74
2023/02/16 02:48:52;;;;;;;;;;;-0.80;99.90;;;;;;5115953;27;19915;-73
2023/02/16 02:51:29;;;;;;;;;;;-0.80;99.90;;;;;;5079872;28;19912;-73
2023/02/16 03:02:35;;;;;;;;;;;-0.70;99.90;;;;;;5095651;28;19927;-74
2023/02/16 03:05:04;;;;;;;;;;;-0.70;99.90;;;;;;5088534;28;19923;-73
2023/02/16 03:08:13;;;;;;;;;;;-0.70;99.90;;;;;;5090529;28;19908;-74
2023/02/16 03:13:15;;;;;;;;;;;-0.70;99.90;;;;;;5084462;28;19916;-73
2023/02/16 03:15:42;;;;;;;;;;;-0.70;99.90;;;;;;5079044;28;19909;-74
2023/02/16 03:29:44;;;;;;;;;;;-0.90;99.90;;;;;;5079440;28;19916;-73
2023/02/16 03:32:03;;;;;;;;;;;-0.90;99.90;;;;;;5079799;28;19927;-73
2023/02/16 03:34:29;;;;;;;;;;;-1.00;99.90;;;;;;5082105;28;19923;-74
2023/02/16 03:36:57;;;;;;;;;;;-1.00;99.90;;;;;;5083856;28;20268;-74
2023/02/16 03:39:24;;;;;;;;;;;-1.00;99.90;;;;;;5091284;28;19908;-73
2023/02/16 03:41:51;;;;;;;;;;;-1.00;99.90;;;;;;5077820;28;19904;-73
2023/02/16 03:44:18;;;;;;;;;;;-1.00;99.90;;;;;;5082637;28;19908;-74
2023/02/16 03:46:44;;;;;;;;;;;-1.00;99.90;;;;;;5113552;27;19907;-75
2023/02/16 03:49:10;;;;;;;;;;;-1.10;99.90;;;;;;5080856;28;19915;-73
2023/02/16 03:51:36;;;;;;;;;;;-1.10;99.90;;;;;;5090922;28;19916;-73
2023/02/16 03:54:02;;;;;;;;;;;-1.10;99.90;;;;;;5078866;28;20394;-73
2023/02/16 03:56:28;;;;;;;;;;;-1.00;99.90;;;;;;5092005;28;20369;-73
2023/02/16 03:58:53;;;;;;;;;;;-1.10;99.90;;;;;;5079278;28;19913;-73
2023/02/16 04:01:19;;;;;;;;;;;-1.10;99.90;;;;;;5084032;28;19959;-74
2023/02/16 04:03:46;;;;;;;;;;;-1.10;99.90;;;;;;5082869;28;19920;-73
2023/02/16 04:06:12;;;;;;;;;;;-1.10;99.90;;;;;;5085830;28;19918;-73
2023/02/16 04:08:38;;;;;;;;;;;-1.10;99.90;;;;;;5082113;28;20409;-74
2023/02/16 04:12:34;;;;;;;;;;;-1.10;99.90;;;;;;5086628;28;20236;-76
2023/02/16 04:13:50;;;;;;;;;;;-1.10;99.90;;;;;;5078696;28;20376;-73
2023/02/16 04:16:16;;;;;;;;;;;-1.10;99.90;;;;;;5080682;28;19919;-76
2023/02/16 04:18:42;;;;;;;;;;;-1.00;99.90;;;;;;5078839;28;19948;-76
2023/02/16 04:21:07;;;;;;;;;;;-1.00;99.90;;;;;;5074935;28;19912;-73
2023/02/16 04:23:33;;;;;;;;;;;-0.90;99.90;;;;;;5077967;28;20389;-73
2023/02/16 04:25:59;;;;;;;;;;;-1.00;99.90;;;;;;5079286;28;19916;-73
2023/02/16 04:28:26;;;;;;;;;;;-1.00;99.90;;;;;;5078906;28;19917;-76
2023/02/16 04:30:51;;;;;;;;;;;-1.00;99.90;;;;;;5076715;28;19999;-75
2023/02/16 04:33:17;;;;;;;;;;;-1.00;99.90;;;;;;5068834;28;19974;-76
2023/02/16 04:35:43;;;;;;;;;;;-1.10;99.90;;;;;;5076989;28;20385;-75
2023/02/16 04:38:09;;;;;;;;;;;-1.00;99.90;;;;;;5085047;28;19916;-75
2023/02/16 04:40:35;;;;;;;;;;;-1.00;99.90;;;;;;5093226;28;19942;-75
2023/02/16 04:43:01;;;;;;;;;;;-1.00;99.90;;;;;;5082712;28;19913;-75
2023/02/16 04:45:27;;;;;;;;;;;-1.00;99.90;;;;;;5084114;28;19912;-75
2023/02/16 04:47:53;;;;;;;;;;;-1.00;99.90;;;;;;5079798;28;20464;-75
2023/02/16 04:50:19;;;;;;;;;;;-1.00;99.90;;;;;;5086795;28;19916;-75
2023/02/16 04:52:45;;;;;;;;;;;-1.00;99.90;;;;;;5080062;28;19982;-75
2023/02/16 04:55:11;;;;;;;;;;;-1.00;99.90;;;;;;5077823;28;19920;-75
2023/02/16 04:57:38;;;;;;;;;;;-1.00;99.90;;;;;;5081641;28;19951;-76
2023/02/16 05:00:05;;;;;;;;;;;-0.90;99.90;;;;;;5087223;28;19908;-75
2023/02/16 05:02:31;;;;;;;;;;;-1.00;99.90;;;;;;5082185;28;20380;-75
2023/02/16 05:04:57;;;;;;;;;;;-0.90;99.90;;;;;;5080464;28;19913;-76
2023/02/16 05:07:23;;;;;;;;;;;-0.90;99.90;;;;;;5089285;28;19913;-75
2023/02/16 05:09:50;;;;;;;;;;;-0.90;99.90;;;;;;5103087;28;19939;-76
2023/02/16 05:15:00;;;;;;;;;;;-0.80;99.90;;;;;;5094631;28;20019;-76
2023/02/16 05:17:27;;;;;;;;;;;-0.80;99.90;;;;;;5084730;28;20210;-75
2023/02/16 05:19:54;;;;;;;;;;;-0.80;99.90;;;;;;5086632;28;20268;-74
2023/02/16 05:22:20;;;;;;;;;;;-0.80;99.90;;;;;;5097003;28;20292;-74
2023/02/16 05:24:47;;;;;;;;;;;-0.80;99.90;;;;;;5083336;28;20002;-74
2023/02/16 05:27:20;;;;;;;;;;;-0.80;99.90;;;;;;5081576;28;19919;-74
2023/02/16 05:29:46;;;;;;;;;;;-0.70;99.90;;;;;;5085687;28;20273;-74
2023/02/16 05:32:13;;;;;;;;;;;-0.70;99.90;;;;;;5084005;28;19923;-74
2023/02/16 05:34:39;;;;;;;;;;;-0.60;99.90;;;;;;5084504;28;19921;-74
2023/02/16 05:37:05;;;;;;;;;;;-0.70;99.90;;;;;;5091753;28;19915;-74
2023/02/16 05:39:31;;;;;;;;;;;-0.60;99.90;;;;;;5080446;28;20288;-74
2023/02/16 05:41:57;;;;;;;;;;;-0.60;99.90;;;;;;5108826;28;19905;-75
2023/02/16 05:44:23;;;;;;;;;;;-0.60;99.90;;;;;;5116026;28;19916;-75
2023/02/16 05:46:49;;;;;;;;;;;-0.60;99.90;;;;;;5109239;28;19896;-77
2023/02/16 05:49:15;;;;;;;;;;;-0.60;99.90;;;;;;5116782;28;19906;-75
2023/02/16 05:51:41;;;;;;;;;;;-0.60;99.90;;;;;;5093517;28;19908;-74
2023/02/16 05:54:09;;;;;;;;;;;-0.60;99.90;;;;;;5109375;28;20246;-75
2023/02/16 05:56:35;;;;;;;;;;;-0.60;99.90;;;;;;5107826;28;19911;-74
2023/02/16 05:59:01;;;;;;;;;;;-0.60;99.90;;;;;;5103815;28;19955;-74
2023/02/16 06:01:27;;;;;;;;;;;-0.50;99.90;;;;;;5090937;28;19959;-74
2023/02/16 06:03:53;;;;;;;;;;;-0.60;99.90;;;;;;5092039;28;19912;-74
2023/02/16 06:06:19;;;;;;;;;;;-0.50;99.90;;;;;;5088056;28;19916;-74
2023/02/16 06:08:45;;;;;;;;;;;-0.50;99.90;;;;;;5088463;28;19938;-77
2023/02/16 06:13:56;;;;;;;;;;;-0.50;99.90;;;;;;5083602;28;19920;-74
2023/02/16 06:16:24;;;;;;;;;;;-0.50;99.90;;;;;;5089585;28;19912;-74
2023/02/16 06:18:50;;;;;;;;;;;-0.50;99.90;;;;;;5086541;28;19912;-75
2023/02/16 06:21:16;;;;;;;;;;;-0.50;99.90;;;;;;5095990;28;19916;-74
2023/02/16 06:23:42;;;;;;;;;;;-0.50;99.90;;;;;;5100186;28;19923;-75
2023/02/16 06:26:08;;;;;;;;;;;-0.40;99.90;;;;;;5084681;28;19938;-75
2023/02/16 06:28:33;;;;;;;;;;;-0.40;99.90;;;;;;5107504;28;19940;-76
2023/02/16 06:30:59;;;;;;;;;;;-0.40;99.90;;;;;;5092890;28;19948;-75
2023/02/16 06:33:25;;;;;;;;;;;-0.40;99.90;;;;;;5107548;28;19924;-76
2023/02/16 06:35:51;;;;;;;;;;;-0.40;99.90;;;;;;5103901;28;19912;-75
2023/02/16 06:38:17;;;;;;;;;;;-0.40;99.90;;;;;;5098123;28;19908;-75
2023/02/16 06:40:43;;;;;;;;;;;-0.40;99.90;;;;;;5095274;28;20007;-75
2023/02/16 06:43:09;;;;;;;;;;;-0.40;99.90;;;;;;5098497;28;19916;-75
2023/02/16 06:45:35;;;;;;;;;;;-0.40;99.90;;;;;;5106524;28;19944;-75
2023/02/16 06:48:01;;;;;;;;;;;-0.40;99.90;;;;;;5100412;28;19948;-76
2023/02/16 06:50:27;;;;;;;;;;;-0.40;99.90;;;;;;5082133;28;20389;-76
2023/02/16 06:52:53;;;;;;;;;;;-0.30;99.90;;;;;;5078627;28;19935;-76
2023/02/16 06:55:19;;;;;;;;;;;-0.30;99.90;;;;;;5087551;28;19916;-76
2023/02/16 06:57:45;;;;;;;;;;;-0.30;99.90;;;;;;5094915;28;19947;-76
2023/02/16 07:00:11;;;;;;;;;;;-0.30;99.90;;;;;;5075241;28;20365;-76
2023/02/16 07:02:38;;;;;;;;;;;-0.30;99.90;;;;;;5082644;28;19920;-75
2023/02/16 07:05:04;;;;;;;;;;;-0.30;99.90;;;;;;5101663;28;20276;-76
2023/02/16 07:07:30;;;;;;;;;;;-0.30;99.90;;;;;;5085889;28;20288;-76
2023/02/16 07:09:57;;;;;;;;;;;-0.20;99.90;;;;;;5112514;27;19916;-76
2023/02/16 07:12:23;;;;;;;;;;;-0.20;99.90;;;;;;5087499;28;19917;-76
2023/02/16 07:14:49;;;;;;;;;;;-0.20;99.90;;;;;;5091232;28;20368;-77
2023/02/16 07:17:15;;;;;;;;;;;-0.30;99.90;;;;;;5111310;27;19954;-76
2023/02/16 07:19:41;;;;;;;;;;;-0.20;99.90;;;;;;5097130;28;20369;-77
2023/02/16 07:22:07;;;;;;;;;;;-0.20;99.90;;;;;;5081951;28;19920;-77
2023/02/16 07:24:33;;;;;;;;;;;-0.20;99.90;;;;;;5089464;28;19951;-76
2023/02/16 07:26:59;;;;;;;;;;;-0.20;99.90;;;;;;5094476;28;19923;-78
2023/02/16 07:29:25;;;;;;;;;;;-0.20;99.90;;;;;;5090953;28;20003;-78
2023/02/16 07:31:52;;;;;;;;;;;-0.20;99.90;;;;;;5093301;28;19921;-77
2023/02/16 07:34:18;;;;;;;;;;;-0.10;99.90;;;;;;5096897;28;19912;-77
2023/02/16 07:36:44;;;;;;;;;;;-0.20;99.90;;;;;;5071748;28;20456;-77
2023/02/16 07:39:10;;;;;;;;;;;-0.10;99.90;;;;;;5082121;28;19920;-76
2023/02/16 07:41:36;;;;;;;;;;;-0.10;99.90;;;;;;5081281;28;19920;-77
2023/02/16 07:44:06;;;;;;;;;;;0.00;99.90;;;;;;5090598;28;19908;-77
2023/02/16 07:46:32;;;;;;;;;;;0.00;99.90;;;;;;5112071;27;19919;-76
2023/02/16 07:48:58;;;;;;;;;;;0.00;99.90;;;;;;5080888;28;20353;-77
2023/02/16 07:51:26;;;;;;;;;;;0.00;99.90;;;;;;5071559;28;20306;-79
2023/02/16 07:53:52;;;;;;;;;;;0.10;99.90;;;;;;5108896;27;19916;-81
2023/02/16 07:56:29;;;;;;;;;;;0.10;99.90;;;;;;5090039;28;20273;-78
2023/02/16 07:58:55;;;;;;;;;;;0.10;99.90;;;;;;5079097;28;19912;-78
2023/02/16 08:01:22;;;;;;;;;;;0.20;99.90;;;;;;5090358;28;20556;-78
2023/02/16 08:03:48;;;;;;;;;;;0.20;99.90;;;;;;5086543;28;19912;-78
2023/02/16 08:06:14;;;;;;;;;;;0.20;99.90;;;;;;5086554;28;19913;-77
2023/02/16 08:08:41;;;;;;;;;;;0.20;99.90;;;;;;5084563;28;19912;-76
2023/02/16 08:11:24;;;;;;;;;;;0.30;99.90;;;;;;5070388;28;19915;-79
2023/02/16 08:13:51;;;;;;;;;;;0.30;99.90;;;;;;5097003;28;19921;-76
2023/02/16 08:16:21;;;;;;;;;;;0.30;99.90;;;;;;5095816;28;19908;-76
2023/02/16 08:18:49;;;;;;;;;;;0.30;99.90;;;;;;5087572;28;19916;-76
2023/02/16 08:21:17;;;;;;;;;;;0.30;99.90;;;;;;5071898;28;19919;-78
2023/02/16 08:23:46;;;;;;;;;;;0.30;99.90;;;;;;5087492;28;19919;-78
2023/02/16 08:26:13;;;;;;;;;;;0.30;99.90;;;;;;5084605;28;19913;-77
2023/02/16 08:28:44;;;;;;;;;;;0.30;99.90;;;;;;5089721;28;19912;-78
2023/02/16 08:31:11;;;;;;;;;;;0.40;99.90;;;;;;5092859;28;19921;-76
2023/02/16 08:33:38;;;;;;;;;;;0.40;99.90;;;;;;5079406;28;19924;-77
2023/02/16 08:36:08;;;;;;;;;;;0.50;99.90;;;;;;5079290;28;20285;-77
2023/02/16 08:38:34;;;;;;;;;;;0.50;99.90;;;;;;5084786;28;19919;-77
2023/02/16 08:41:00;;;;;;;;;;;0.50;99.90;;;;;;5084523;28;19923;-77
2023/02/16 08:43:29;;;;;;;;;;;0.50;99.90;;;;;;5082468;28;19923;-77
2023/02/16 08:45:56;;;;;;;;;;;0.50;99.90;;;;;;5075422;28;19915;-76
2023/02/16 08:48:22;;;;;;;;;;;0.60;99.90;;;;;;5092528;28;19916;-77
2023/02/16 08:50:54;;;;;;;;;;;0.60;99.90;;;;;;5081399;28;19912;-77
2023/02/16 08:53:21;;;;;;;;;;;0.70;99.90;;;;;;5084379;28;19916;-77
2023/02/16 08:55:52;;;;;;;;;;;0.70;99.90;;;;;;5113845;27;19924;-75
2023/02/16 08:58:19;;;;;;;;;;;0.70;99.90;;;;;;5094657;28;19919;-77
2023/02/16 09:00:45;;;;;;;;;;;0.70;99.90;;;;;;5091292;28;20431;-78
2023/02/16 09:03:12;;;;;;;;;;;0.80;99.90;;;;;;5081797;28;19923;-76
2023/02/16 09:05:39;;;;;;;;;;;0.80;99.90;;;;;;5119555;27;19913;-76
2023/02/16 09:08:05;;;;;;;;;;;0.80;99.90;;;;;;5093924;28;19912;-77
2023/02/16 09:10:31;;;;;;;;;;;0.90;99.90;;;;;;5090787;28;19998;-77
2023/02/16 09:12:57;;;;;;;;;;;1.10;99.90;;;;;;5086433;28;19916;-77
2023/02/16 09:15:23;;;;;;;;;;;1.10;99.90;;;;;;5078472;28;19913;-75
2023/02/16 09:17:49;;;;;;;;;;;1.10;99.90;;;;;;5081039;28;19912;-76
2023/02/16 09:20:16;;;;;;;;;;;1.10;99.90;;;;;;5090991;28;19913;-76
2023/02/16 09:22:46;;;;;;;;;;;1.20;99.90;;;;;;5094720;28;19913;-76
2023/02/16 09:25:12;;;;;;;;;;;1.20;99.90;;;;;;5086075;28;19919;-78
2023/02/16 09:27:38;;;;;;;;;;;1.20;99.90;;;;;;5088109;28;19927;-76
2023/02/16 09:30:05;;;;;;;;;;;1.30;99.90;;;;;;5083798;28;19915;-76
2023/02/16 09:32:31;;;;;;;;;;;1.40;99.90;;;;;;5078624;28;19916;-76
2023/02/16 09:34:57;;;;;;;;;;;1.50;99.90;;;;;;5090295;28;19970;-76
2023/02/16 09:37:23;;;;;;;;;;;1.60;99.90;;;;;;5079755;28;19962;-76
2023/02/16 09:39:49;;;;;;;;;;;1.60;99.90;;;;;;5082385;28;19923;-75
2023/02/16 09:42:38;;;;;;;;;;;1.60;99.90;;;;;;5121139;27;20074;-75
2023/02/16 09:45:08;;;;;;;;;;;1.70;99.90;;;;;;5076968;28;19913;-75
2023/02/16 09:47:39;;;;;;;;;;;1.80;99.90;;;;;;5096268;28;19911;-75
2023/02/16 09:50:12;;;;;;;;;;;1.90;99.90;;;;;;5081691;28;19913;-77
2023/02/16 09:52:39;;;;;;;;;;;2.00;99.90;;;;;;5089539;28;19927;-76
2023/02/16 09:55:10;;;;;;;;;;;2.10;99.90;;;;;;5080616;28;19913;-76
2023/02/16 09:57:42;;;;;;;;;;;2.20;99.90;;;;;;5092848;28;20372;-76
2023/02/16 10:00:27;;;;;;;;;;;2.30;99.90;;;;;;5083578;28;19919;-77
2023/02/16 10:03:12;;;;;;;;;;;2.50;99.90;;;;;;5093669;28;19921;-76
2023/02/16 10:05:43;;;;;;;;;;;2.60;99.90;;;;;;5086900;28;20293;-76
2023/02/16 10:08:13;;;;;;;;;;;2.60;99.90;;;;;;5081833;28;20285;-77
2023/02/16 10:10:49;;;;;;;;;;;2.70;65.90;;;;;;5085532;28;20361;-76
2023/02/16 10:13:25;;;;;;;;;;;2.80;49.60;;;;;;5099622;28;19917;-76
2023/02/16 10:15:53;;;;;;;;;;;3.10;42.40;;;;;;5091918;28;19916;-76
2023/02/16 10:18:34;;;;;;;;;;;3.10;18.70;;;;;;5082686;28;20362;-76
2023/02/16 10:21:01;;;;;;;;;;;3.20;8.50;;;;;;5090361;28;19970;-76
2023/02/16 10:23:44;;;;;;;;;;;3.30;4.00;;;;;;5089810;28;19924;-76
2023/02/16 10:26:19;;;;;;;;;;;3.20;1.00;;;;;;5085644;28;19926;-76
2023/02/16 10:28:56;;;;;;;;;;;3.40;1.00;;;;;;5092128;28;19919;-76
2023/02/16 10:31:26;;;;;;;;;;;3.50;1.00;;;;;;5097233;28;20285;-76
2023/02/16 10:33:55;;;;;;;;;;;3.60;1.00;;;;;;5093975;28;19916;-76
2023/02/16 10:36:21;;;;;;;;;;;3.70;1.00;;;;;;5121716;27;19939;-76
2023/02/16 10:38:58;;;;;;;;;;;3.90;1.00;;;;;;5087341;28;19912;-76
2023/02/16 10:41:31;;;;;;;;;;;4.10;1.00;;;;;;5081833;28;19913;-76
2023/02/16 10:44:30;;;;;;;;;;;4.40;1.00;;;;;;5075878;28;19912;-77
2023/02/16 10:47:00;;;;;;;;;;;4.50;1.00;;;;;;5081159;28;19927;-76
2023/02/16 10:49:28;;;;;;;;;;;4.80;1.00;;;;;;5080658;28;19916;-75
2023/02/16 10:51:55;;;;;;;;;;;5.20;1.00;;;;;;5077995;28;19919;-74
2023/02/16 10:54:25;;;;;;;;;;;5.50;1.00;;;;;;5093496;28;19916;-75
2023/02/16 10:56:52;;;;;;;;;;;5.70;1.00;;;;;;5084340;28;19913;-75
2023/02/16 10:59:29;;;;;;;;;;;5.70;1.00;;;;;;5080403;28;19937;-75
2023/02/16 11:01:59;;;;;;;;;;;5.70;1.00;;;;;;5078009;28;19928;-75
2023/02/16 11:04:35;;;;;;;;;;;5.90;1.00;;;;;;5083887;28;19939;-75
2023/02/16 11:07:11;;;;;;;;;;;6.10;1.00;;;;;;5090818;28;19913;-76
2023/02/16 11:09:37;;;;;;;;;;;6.50;1.00;;;;;;5102133;27;19913;-76
2023/02/16 11:12:33;;;;;;;;;;;6.60;1.00;;;;;;5082389;28;19987;-76
2023/02/16 11:15:20;;;;;;;;;;;6.80;1.00;;;;;;5076323;28;20369;-77
2023/02/16 11:17:48;;;;;;;;;;;7.00;1.00;;;;;;5076589;28;19931;-75
2023/02/16 11:20:34;;;;;;;;;;;7.20;1.00;;;;;;5095107;28;20341;-77
2023/02/16 11:23:18;;;;;;;;;;;7.20;1.00;;;;;;5087152;28;20285;-76
2023/02/16 11:26:05;;;;;;;;;;;7.30;1.00;;;;;;5076882;28;19912;-75
2023/02/16 11:28:32;;;;;;;;;;;7.30;1.00;;;;;;5087360;28;19986;-75
2023/02/16 11:31:00;;;;;;;;;;;7.50;1.00;;;;;;5087294;28;19916;-78
2023/02/16 11:33:27;;;;;;;;;;;7.70;1.00;;;;;;5089699;28;19927;-76
2023/02/16 11:35:53;;;;;;;;;;;7.80;1.00;;;;;;5086667;28;19923;-74
2023/02/16 11:38:37;;;;;;;;;;;8.00;1.00;;;;;;5075531;28;19916;-75
2023/02/16 11:41:05;;;;;;;;;;;8.20;1.00;;;;;;5083032;28;19924;-75
2023/02/16 11:43:32;;;;;;;;;;;8.20;99.90;;;;;;5080454;28;19912;-75
2023/02/16 11:46:00;;;;;;;;;;;8.20;1.00;;;;;;5082805;28;19919;-75
2023/02/16 11:48:28;;;;;;;;;;;8.30;1.00;;;;;;5084565;28;19920;-75
2023/02/16 11:50:56;;;;;;;;;;;8.50;99.90;;;;;;5077121;28;20376;-75
2023/02/16 11:53:24;;;;;;;;;;;8.60;99.90;;;;;;5086879;28;20400;-75
2023/02/16 11:55:51;;;;;;;;;;;8.60;99.90;;;;;;5084608;28;19938;-75
2023/02/16 11:58:19;;;;;;;;;;;8.90;99.90;;;;;;5079479;28;19919;-76
2023/02/16 12:01:00;;;;;;;;;;;9.00;99.90;;;;;;5085882;28;19913;-76
2023/02/16 12:03:44;;;;;;;;;;;8.80;99.90;;;;;;5086368;28;19916;-75
2023/02/16 12:06:21;;;;;;;;;;;8.80;99.90;;;;;;5084961;28;19919;-75
2023/02/16 12:08:59;;;;;;;;;;;8.80;99.90;;;;;;5081192;28;20300;-76
2023/02/16 12:11:28;;;;;;;;;;;8.80;99.90;;;;;;5090420;28;19923;-76
2023/02/16 12:14:33;;;;;;;;;;;8.90;99.90;;;;;;5079334;28;20298;-76
2023/02/16 12:17:12;;;;;;;;;;;8.90;99.90;;;;;;5069598;28;19932;-76
2023/02/16 12:19:45;;;;;;;;;;;9.20;99.90;;;;;;5067224;28;19920;-75
2023/02/16 12:22:22;;;;;;;;;;;9.20;99.90;;;;;;5081021;28;20358;-75
2023/02/16 12:24:54;;;;;;;;;;;9.50;99.90;;;;;;5081017;28;19913;-75
2023/02/16 12:27:50;;;;;;;;;;;9.60;99.90;;;;;;5088577;28;20332;-75
2023/02/16 12:30:35;;;;;;;;;;;9.70;99.90;;;;;;5028433;28;20262;-75
2023/02/16 12:33:07;;;;;;;;;;;9.80;99.90;;;;;;5091452;28;19917;-77
2023/02/16 12:35:37;;;;;;;;;;;9.80;99.90;;;;;;5083476;28;19917;-75
2023/02/16 12:38:18;;;;;;;;;;;9.70;99.90;;;;;;5095061;28;19919;-75
2023/02/16 12:40:56;;;;;;;;;;;9.80;99.90;;;;;;5082316;28;19919;-76
2023/02/16 12:43:31;;;;;;;;;;;9.90;99.90;;;;;;5080873;28;19931;-77
2023/02/16 12:46:00;;;;;;;;;;;10.00;99.90;;;;;;5079385;28;19912;-75
2023/02/16 12:48:41;;;;;;;;;;;10.20;99.90;;;;;;5087594;28;20253;-76
2023/02/16 12:51:09;;;;;;;;;;;10.30;99.90;;;;;;5082864;28;20376;-76
2023/02/16 12:53:55;;;;;;;;;;;10.30;99.90;;;;;;5079053;28;19912;-76
2023/02/16 12:56:25;;;;;;;;;;;10.40;99.90;;;;;;5094779;28;19931;-75
2023/02/16 12:58:56;;;;;;;;;;;10.50;99.90;;;;;;5084898;28;19919;-77
2023/02/16 13:01:24;;;;;;;;;;;10.60;99.90;;;;;;5084624;28;20106;-75
2023/02/16 13:03:51;;;;;;;;;;;10.70;99.90;;;;;;5080441;28;19926;-76
2023/02/16 13:06:20;;;;;;;;;;;10.70;99.90;;;;;;5078839;28;19912;-75
2023/02/16 13:08:53;;;;;;;;;;;10.80;99.90;;;;;;5078248;28;19923;-76
2023/02/16 13:11:22;;;;;;;;;;;10.90;99.90;;;;;;5080885;28;19912;-76
2023/02/16 13:13:50;;;;;;;;;;;11.00;99.90;;;;;;5080999;28;20257;-76
2023/02/16 13:16:18;;;;;;;;;;;11.00;99.90;;;;;;5079476;28;19927;-76
2023/02/16 13:18:46;;;;;;;;;;;11.00;99.90;;;;;;5082697;28;19908;-76
2023/02/16 13:21:16;;;;;;;;;;;11.10;99.90;;;;;;5078590;28;19912;-75
2023/02/16 13:23:56;;;;;;;;;;;11.00;99.90;;;;;;5070654;28;19919;-76
2023/02/16 13:26:41;;;;;;;;;;;11.00;99.90;;;;;;5075646;28;19913;-77
2023/02/16 13:29:21;;;;;;;;;;;11.00;99.90;;;;;;5087344;28;19913;-76
2023/02/16 13:31:52;;;;;;;;;;;11.10;99.90;;;;;;5080029;28;19992;-74
2023/02/16 13:34:18;;;;;;;;;;;11.10;99.90;;;;;;5086836;28;19920;-75
2023/02/16 13:36:44;;;;;;;;;;;11.10;99.90;;;;;;5085026;28;19916;-75
2023/02/16 13:39:23;;;;;;;;;;;11.10;99.90;;;;;;5086793;28;20376;-83
2023/02/16 13:41:59;;;;;;;;;;;11.10;99.90;;;;;;5100255;28;20325;-85
2023/02/16 13:44:32;;;;;;;;;;;11.10;99.90;;;;;;5104999;28;19912;-82
2023/02/16 13:47:01;;;;;;;;;;;11.20;99.90;;;;;;5117311;28;19919;-84
2023/02/16 13:49:39;;;;;;;;;;;11.30;99.90;;;;;;5102255;28;19908;-84
2023/02/16 13:52:07;;;;;;;;;;;11.40;99.90;;;;;;5076719;28;19919;-84
2023/02/16 13:54:36;;;;;;;;;;;11.20;99.90;;;;;;5116290;28;19916;-85
2023/02/16 13:57:03;;;;;;;;;;;11.20;99.90;;;;;;5110954;28;19930;-85
2023/02/16 13:59:29;;;;;;;;;;;11.20;99.90;;;;;;5083831;28;19909;-84
2023/02/16 14:01:56;;;;;;;;;;;11.30;99.90;;;;;;5071731;28;20429;-84
2023/02/16 14:04:22;;;;;;;;;;;11.40;99.90;;;;;;5099461;28;19916;-85
2023/02/16 14:06:49;;;;;;;;;;;11.50;99.90;;;;;;5080143;28;19911;-85
2023/02/16 14:09:15;;;;;;;;;;;11.60;99.90;;;;;;5089136;28;20392;-85
2023/02/16 14:11:58;;;;;;;;;;;11.70;99.90;;;;;;5091938;28;19923;-84
2023/02/16 14:14:33;;;;;;;;;;;11.90;99.90;;;;;;5094707;28;19916;-85
2023/02/16 14:17:16;;;;;;;;;;;12.00;99.90;;;;;;5092136;28;20344;-86
2023/02/16 14:19:52;;;;;;;;;;;12.20;99.90;;;;;;5110529;27;19920;-84
2023/02/16 14:22:40;;;;;;;;;;;12.30;99.90;;;;;;5099944;28;19923;-85
2023/02/16 14:25:27;;;;;;;;;;;12.30;99.90;;;;;;5069631;28;19916;-85
2023/02/16 14:27:53;;;;;;;;;;;12.50;99.90;;;;;;5102723;28;19923;-83
2023/02/16 14:30:25;;;;;;;;;;;12.50;99.90;;;;;;5094943;28;19912;-84
2023/02/16 14:32:58;;;;;;;;;;;12.40;99.90;;;;;;5092604;28;20254;-84
2023/02/16 14:35:26;;;;;;;;;;;12.50;99.90;;;;;;5089356;28;19924;-83
2023/02/16 14:38:25;;;;;;;;;;;12.50;99.90;;;;;;5095998;28;19939;-83
2023/02/16 14:40:54;;;;;;;;;;;12.50;99.90;;;;;;5052073;28;19912;-84
2023/02/16 14:43:30;;;;;;;;;;;12.50;99.90;;;;;;5087496;28;19912;-85
2023/02/16 14:46:15;;;;;;;;;;;12.50;99.90;;;;;;5061001;28;19916;-85
2023/02/16 14:48:57;;;;;;;;;;;12.50;99.90;;;;;;5091938;28;19911;-84
2023/02/16 14:51:42;;;;;;;;;;;12.40;99.90;;;;;;5109156;28;19995;-84
2023/02/16 14:54:14;;;;;;;;;;;12.40;99.90;;;;;;5107454;28;19923;-84
2023/02/16 14:56:51;;;;;;;;;;;12.30;99.90;;;;;;5092346;28;20257;-84
2023/02/16 14:59:32;;;;;;;;;;;12.30;99.90;;;;;;5108332;27;19912;-85
2023/02/16 15:01:59;;;;;;;;;;;12.20;99.90;;;;;;5104230;28;19932;-84
2023/02/16 15:04:29;;;;;;;;;;;12.20;99.90;;;;;;5092383;28;19919;-85
2023/02/16 15:06:57;;;;;;;;;;;12.10;99.90;;;;;;5093167;28;19920;-85
2023/02/16 15:09:24;;;;;;;;;;;12.10;99.90;;;;;;5108762;27;19919;-85
2023/02/16 15:14:44;;;;;;;;;;;12.20;99.90;;;;;;5097581;28;19923;-85
2023/02/16 15:17:17;;;;;;;;;;;12.10;99.90;;;;;;5090828;28;19916;-86
2023/02/16 15:19:43;;;;;;;;;;;12.10;99.90;;;;;;5093132;28;19945;-85
2023/02/16 15:22:20;;;;;;;;;;;12.10;99.90;;;;;;5090853;28;19908;-85
2023/02/16 15:24:57;;;;;;;;;;;12.00;99.90;;;;;;5111542;27;19912;-85